PWSweather.com
Personal Weather Stations
Station Observations
KILMORRI1
Goose Lake, Morris, IL 60450

Goose LakeMorris, IL 60450

Lat: 41.34, Lon: -88.3

Elevation: 523

Station Type:

www.gooselakeweather.com

High Low Average
Temperature 49.0°F9.4°F 34.6°F1.4°F 42.0°F5.6°F
Dew Point 46.4°F8.0°F 31.4°F-0.3°F 39.4°F4.1°F
Winds 17.3 mph N27.8 mph N Calm Calm 7.7 mph 12.4 mph
Wind Gusts 24.2 mph38.9 mph -- 11.7 mph18.8 mph
Humidity 95% 81% 90%
Pressure 29.89 in1012.20 in 29.40 in995.60 in -
Precipitation 1.29 in32.80 in - -
Hour Temp Dew Point Humidity Winds Wind Gusts Pressure Precip Precip Rate Daily Precip Total
12:00 AM 49.0°F9.4°C 45.9°F7.7°C 89% 6.9 mph SW11.1 kmh SW 10.4 mph16.7 kmh 29.55 in1000.7 mb - 0.00 in0.0 mm 0.00 in0.0 mm
12:10 AM 48.9°F9.4°C 46.1°F7.8°C 90% 5.8 mph SW9.3 kmh SW 9.2 mph14.8 kmh 29.55 in1000.7 mb - 0.00 in0.0 mm 0.00 in0.0 mm
12:20 AM 48.7°F9.3°C 45.9°F7.7°C 90% 4.6 mph SW7.4 kmh SW 6.9 mph11.1 kmh 29.55 in1000.7 mb - 0.01 in0.3 mm 0.01 in0.3 mm
12:30 AM 48.4°F9.1°C 45.9°F7.7°C 91% 5.8 mph SW9.3 kmh SW 9.2 mph14.8 kmh 29.54 in1000.3 mb - 0.00 in0.0 mm 0.01 in0.3 mm
12:40 AM 48.3°F9.1°C 46.1°F7.8°C 92% 3.5 mph SW5.6 kmh SW 4.6 mph7.4 kmh 29.54 in1000.3 mb - 0.01 in0.3 mm 0.02 in0.5 mm
12:50 AM 48.2°F9.0°C 46.3°F7.9°C 93% 1.2 mph WSW1.9 kmh WSW 3.5 mph5.6 kmh 29.54 in1000.3 mb - 0.00 in0.0 mm 0.02 in0.5 mm
01:00 AM 48.3°F9.1°C 46.4°F8.0°C 93% 1.2 mph WSW1.9 kmh WSW 3.5 mph5.6 kmh 29.54 in1000.3 mb - 0.00 in0.0 mm 0.02 in0.5 mm
01:10 AM 48.2°F9.0°C 46.3°F7.9°C 93% Calm Calm -- 29.53 in1000.0 mb - 0.00 in0.0 mm 0.02 in0.5 mm
01:20 AM 48.1°F8.9°C 46.2°F7.9°C 93% Calm Calm -- 29.53 in1000.0 mb - 0.00 in0.0 mm 0.02 in0.5 mm
01:30 AM 47.9°F8.8°C 46.3°F7.9°C 94% Calm Calm -- 29.52 in999.7 mb - 0.00 in0.0 mm 0.02 in0.5 mm
01:40 AM 47.9°F8.8°C 46.3°F7.9°C 94% Calm Calm -- 29.52 in999.7 mb - 0.00 in0.0 mm 0.02 in0.5 mm
01:50 AM 47.8°F8.8°C 46.2°F7.9°C 94% Calm Calm -- 29.52 in999.7 mb - 0.00 in0.0 mm 0.02 in0.5 mm
02:00 AM 47.8°F8.8°C 46.2°F7.9°C 94% Calm Calm -- 29.52 in999.7 mb - 0.00 in0.0 mm 0.02 in0.5 mm
02:10 AM 47.7°F8.7°C 46.1°F7.8°C 94% 2.3 mph NNE3.7 kmh NNE 3.5 mph5.6 kmh 29.52 in999.7 mb - 0.00 in0.0 mm 0.02 in0.5 mm
02:20 AM 47.6°F8.7°C 46.0°F7.8°C 94% Calm Calm 2.3 mph3.7 kmh 29.52 in999.7 mb - 0.00 in0.0 mm 0.02 in0.5 mm
02:30 AM 47.6°F8.7°C 46.0°F7.8°C 94% 1.2 mph N1.9 kmh N 2.3 mph3.7 kmh 29.52 in999.7 mb - 0.00 in0.0 mm 0.02 in0.5 mm
02:40 AM 47.6°F8.7°C 46.0°F7.8°C 94% Calm Calm -- 29.51 in999.3 mb - 0.00 in0.0 mm 0.02 in0.5 mm
02:50 AM 47.6°F8.7°C 46.0°F7.8°C 94% 1.2 mph NNE1.9 kmh NNE 2.3 mph3.7 kmh 29.51 in999.3 mb - 0.00 in0.0 mm 0.02 in0.5 mm
03:00 AM 47.6°F8.7°C 46.3°F7.9°C 95% Calm Calm -- 29.52 in999.7 mb - 0.00 in0.0 mm 0.02 in0.5 mm
03:10 AM 47.6°F8.7°C 46.3°F7.9°C 95% 2.3 mph NE3.7 kmh NE 3.5 mph5.6 kmh 29.50 in999.0 mb - 0.00 in0.0 mm 0.02 in0.5 mm
03:20 AM 47.6°F8.7°C 46.2°F7.9°C 95% Calm Calm -- 29.50 in999.0 mb - 0.00 in0.0 mm 0.02 in0.5 mm
03:30 AM 47.5°F8.6°C 46.1°F7.8°C 95% Calm Calm -- 29.50 in999.0 mb - 0.00 in0.0 mm 0.02 in0.5 mm
03:40 AM 47.5°F8.6°C 46.1°F7.8°C 95% Calm Calm 2.3 mph3.7 kmh 29.49 in998.6 mb - 0.00 in0.0 mm 0.02 in0.5 mm
03:50 AM 47.5°F8.6°C 46.1°F7.8°C 95% 1.2 mph NE1.9 kmh NE 2.3 mph3.7 kmh 29.48 in998.3 mb - 0.00 in0.0 mm 0.02 in0.5 mm
04:00 AM 47.5°F8.6°C 46.2°F7.9°C 95% Calm Calm 1.2 mph1.9 kmh 29.48 in998.3 mb - 0.00 in0.0 mm 0.02 in0.5 mm
04:10 AM 47.5°F8.6°C 46.2°F7.9°C 95% 1.2 mph NE1.9 kmh NE 2.3 mph3.7 kmh 29.48 in998.3 mb - 0.00 in0.0 mm 0.02 in0.5 mm
04:20 AM 47.6°F8.7°C 46.2°F7.9°C 95% 1.2 mph NE1.9 kmh NE 2.3 mph3.7 kmh 29.48 in998.3 mb - 0.00 in0.0 mm 0.02 in0.5 mm
04:30 AM 47.7°F8.7°C 46.3°F7.9°C 95% Calm Calm -- 29.47 in998.0 mb - 0.00 in0.0 mm 0.02 in0.5 mm
04:40 AM 47.7°F8.7°C 46.3°F7.9°C 95% Calm Calm -- 29.48 in998.3 mb - 0.01 in0.3 mm 0.03 in0.8 mm
04:50 AM 47.7°F8.7°C 46.4°F8.0°C 95% Calm Calm -- 29.48 in998.3 mb - 0.07 in1.8 mm 0.10 in2.5 mm
05:00 AM 47.7°F8.7°C 46.4°F8.0°C 95% 3.5 mph NE5.6 kmh NE 3.5 mph5.6 kmh 29.47 in998.0 mb - 0.06 in1.5 mm 0.16 in4.1 mm
05:10 AM 47.6°F8.7°C 46.2°F7.9°C 95% 1.2 mph NE1.9 kmh NE 3.5 mph5.6 kmh 29.46 in997.6 mb - 0.01 in0.3 mm 0.17 in4.3 mm
05:20 AM 47.6°F8.7°C 46.2°F7.9°C 95% 2.3 mph NE3.7 kmh NE 3.5 mph5.6 kmh 29.46 in997.6 mb - 0.00 in0.0 mm 0.17 in4.3 mm
05:30 AM 47.5°F8.6°C 46.1°F7.8°C 95% 2.3 mph E3.7 kmh E 3.5 mph5.6 kmh 29.46 in997.6 mb - 0.01 in0.3 mm 0.18 in4.6 mm
05:40 AM 47.6°F8.7°C 46.2°F7.9°C 95% 3.5 mph ENE5.6 kmh ENE 6.9 mph11.1 kmh 29.45 in997.3 mb - 0.04 in1.0 mm 0.21 in5.3 mm
05:50 AM 47.8°F8.8°C 46.4°F8.0°C 95% 3.5 mph ENE5.6 kmh ENE 3.5 mph5.6 kmh 29.44 in997.0 mb - 0.00 in0.0 mm 0.21 in5.3 mm
06:00 AM 47.8°F8.8°C 46.4°F8.0°C 95% 2.3 mph NE3.7 kmh NE 3.5 mph5.6 kmh 29.43 in996.6 mb - 0.00 in0.0 mm 0.21 in5.3 mm
06:10 AM 47.6°F8.7°C 46.3°F7.9°C 95% 2.3 mph NE3.7 kmh NE 6.9 mph11.1 kmh 29.44 in997.0 mb - 0.00 in0.0 mm 0.21 in5.3 mm
06:20 AM 47.5°F8.6°C 46.1°F7.8°C 95% 5.8 mph NE9.3 kmh NE 8.1 mph13.0 kmh 29.43 in996.6 mb - 0.00 in0.0 mm 0.21 in5.3 mm
06:30 AM 47.5°F8.6°C 46.1°F7.8°C 95% 3.5 mph NE5.6 kmh NE 3.5 mph5.6 kmh 29.43 in996.6 mb - 0.01 in0.3 mm 0.22 in5.6 mm
06:40 AM 47.5°F8.6°C 46.1°F7.8°C 95% 2.3 mph NE3.7 kmh NE 8.1 mph13.0 kmh 29.43 in996.6 mb - 0.01 in0.3 mm 0.23 in5.8 mm
06:50 AM 47.4°F8.6°C 46.0°F7.8°C 95% 2.3 mph NE3.7 kmh NE 3.5 mph5.6 kmh 29.45 in997.3 mb - 0.01 in0.3 mm 0.24 in6.1 mm
07:00 AM 47.3°F8.5°C 45.9°F7.7°C 95% 6.9 mph ENE11.1 kmh ENE 11.5 mph18.5 kmh 29.42 in996.3 mb - 0.01 in0.3 mm 0.25 in6.4 mm
07:10 AM 47.2°F8.4°C 45.8°F7.7°C 95% 6.9 mph ENE11.1 kmh ENE 8.1 mph13.0 kmh 29.43 in996.6 mb - 0.01 in0.3 mm 0.26 in6.6 mm
07:20 AM 47.2°F8.4°C 45.8°F7.7°C 95% 3.5 mph NE5.6 kmh NE 5.8 mph9.3 kmh 29.43 in996.6 mb - 0.01 in0.3 mm 0.27 in6.9 mm
07:30 AM 47.1°F8.4°C 45.7°F7.6°C 95% 6.9 mph NE11.1 kmh NE 10.4 mph16.7 kmh 29.43 in996.6 mb - 0.03 in0.8 mm 0.30 in7.6 mm
07:40 AM 46.9°F8.3°C 45.5°F7.5°C 95% 10.4 mph NE16.7 kmh NE 11.5 mph18.5 kmh 29.40 in995.6 mb - 0.01 in0.3 mm 0.31 in7.9 mm
07:50 AM 46.5°F8.1°C 45.2°F7.3°C 95% 8.1 mph NE13.0 kmh NE 11.5 mph18.5 kmh 29.40 in995.6 mb - 0.02 in0.5 mm 0.33 in8.4 mm
08:00 AM 46.0°F7.8°C 44.7°F7.1°C 95% 9.2 mph NNE14.8 kmh NNE 11.5 mph18.5 kmh 29.41 in995.9 mb - 0.01 in0.3 mm 0.34 in8.6 mm
08:10 AM 45.2°F7.3°C 43.6°F6.4°C 94% 8.1 mph NE13.0 kmh NE 11.5 mph18.5 kmh 29.41 in995.9 mb - 0.02 in0.5 mm 0.36 in9.1 mm
08:20 AM 44.6°F7.0°C 43.0°F6.1°C 94% 9.2 mph NNE14.8 kmh NNE 12.7 mph20.4 kmh 29.42 in996.3 mb - 0.04 in1.0 mm 0.40 in10.2 mm
08:30 AM 44.0°F6.7°C 42.4°F5.8°C 94% 9.2 mph NNE14.8 kmh NNE 12.7 mph20.4 kmh 29.41 in995.9 mb - 0.07 in1.8 mm 0.45 in11.4 mm
08:40 AM 43.6°F6.4°C 42.0°F5.6°C 94% 13.8 mph NNE22.2 kmh NNE 16.1 mph25.9 kmh 29.41 in995.9 mb - 0.02 in0.5 mm 0.46 in11.7 mm
08:50 AM 43.3°F6.3°C 41.7°F5.4°C 94% 9.2 mph N14.8 kmh N 12.7 mph20.4 kmh 29.43 in996.6 mb - 0.02 in0.5 mm 0.48 in12.2 mm
09:00 AM 43.0°F6.1°C 41.4°F5.2°C 94% 8.1 mph N13.0 kmh N 10.4 mph16.7 kmh 29.44 in997.0 mb - 0.04 in1.0 mm 0.52 in13.2 mm
09:10 AM 42.7°F5.9°C 40.8°F4.9°C 93% 15.0 mph NNE24.1 kmh NNE 19.6 mph31.5 kmh 29.43 in996.6 mb - 0.06 in1.5 mm 0.58 in14.7 mm
09:20 AM 42.4°F5.8°C 40.6°F4.8°C 93% 13.8 mph N22.2 kmh N 19.6 mph31.5 kmh 29.43 in996.6 mb - 0.05 in1.3 mm 0.62 in15.7 mm
09:30 AM 42.3°F5.7°C 40.4°F4.7°C 93% 10.4 mph NNE16.7 kmh NNE 15.0 mph24.1 kmh 29.44 in997.0 mb - 0.04 in1.0 mm 0.66 in16.8 mm
09:40 AM 42.0°F5.6°C 40.1°F4.5°C 93% 9.2 mph N14.8 kmh N 16.1 mph25.9 kmh 29.42 in996.3 mb - 0.05 in1.3 mm 0.71 in18.0 mm
09:50 AM 41.7°F5.4°C 39.8°F4.3°C 93% 16.1 mph N25.9 kmh N 19.6 mph31.5 kmh 29.42 in996.3 mb - 0.05 in1.3 mm 0.75 in19.1 mm
10:00 AM 41.4°F5.2°C 39.5°F4.2°C 93% 12.7 mph NNE20.4 kmh NNE 19.6 mph31.5 kmh 29.43 in996.6 mb - 0.04 in1.0 mm 0.78 in19.8 mm
10:10 AM 41.2°F5.1°C 39.3°F4.1°C 93% 10.4 mph N16.7 kmh N 13.8 mph22.2 kmh 29.45 in997.3 mb - 0.04 in1.0 mm 0.82 in20.8 mm
10:20 AM 41.0°F5.0°C 39.1°F3.9°C 93% 10.4 mph N16.7 kmh N 11.5 mph18.5 kmh 29.46 in997.6 mb - 0.04 in1.0 mm 0.86 in21.8 mm
10:30 AM 40.8°F4.9°C 38.9°F3.8°C 93% 15.0 mph 24.1 kmh 19.6 mph31.5 kmh 29.44 in997.0 mb - 0.04 in1.0 mm 0.90 in22.9 mm
10:40 AM 40.7°F4.8°C 38.8°F3.8°C 93% 15.0 mph 24.1 kmh 21.9 mph35.2 kmh 29.42 in996.3 mb - 0.05 in1.3 mm 0.94 in23.9 mm
10:50 AM 40.7°F4.8°C 38.8°F3.8°C 93% 17.3 mph N27.8 kmh N 23.0 mph37.0 kmh 29.40 in995.6 mb - 0.03 in0.8 mm 0.96 in24.4 mm
11:00 AM 40.6°F4.8°C 38.5°F3.6°C 92% 12.7 mph N20.4 kmh N 18.4 mph29.6 kmh 29.42 in996.3 mb - 0.01 in0.3 mm 0.97 in24.6 mm
11:10 AM 40.6°F4.8°C 38.5°F3.6°C 92% 10.4 mph N16.7 kmh N 17.3 mph27.8 kmh 29.44 in997.0 mb - 0.00 in0.0 mm 0.97 in24.6 mm
11:20 AM 40.3°F4.6°C 38.2°F3.4°C 92% 11.5 mph NNW18.5 kmh NNW 16.1 mph25.9 kmh 29.45 in997.3 mb - 0.01 in0.3 mm 0.98 in24.9 mm
11:30 AM 40.1°F4.5°C 38.0°F3.3°C 92% 12.7 mph N20.4 kmh N 19.6 mph31.5 kmh 29.43 in996.6 mb - 0.03 in0.8 mm 1.01 in25.7 mm
11:40 AM 39.8°F4.3°C 37.6°F3.1°C 92% 12.7 mph N20.4 kmh N 19.6 mph31.5 kmh 29.43 in996.6 mb - 0.02 in0.5 mm 1.02 in25.9 mm
11:50 AM 39.6°F4.2°C 37.5°F3.1°C 92% 12.7 mph N20.4 kmh N 19.6 mph31.5 kmh 29.43 in996.6 mb - 0.01 in0.3 mm 1.03 in26.2 mm
12:00 PM 39.5°F4.2°C 37.4°F3.0°C 92% 15.0 mph N24.1 kmh N 20.7 mph33.3 kmh 29.43 in996.6 mb - 0.01 in0.3 mm 1.04 in26.4 mm
12:10 PM 39.3°F4.1°C 37.2°F2.9°C 92% 11.5 mph NNW18.5 kmh NNW 18.4 mph29.6 kmh 29.46 in997.6 mb - 0.00 in0.0 mm 1.04 in26.4 mm
12:20 PM 39.2°F4.0°C 37.1°F2.8°C 92% 11.5 mph N18.5 kmh N 20.7 mph33.3 kmh 29.47 in998.0 mb - 0.00 in0.0 mm 1.04 in26.4 mm
12:30 PM 39.0°F3.9°C 36.9°F2.7°C 92% 13.8 mph N22.2 kmh N 20.7 mph33.3 kmh 29.46 in997.6 mb - 0.02 in0.5 mm 1.06 in26.9 mm
12:40 PM 38.4°F3.6°C 36.3°F2.4°C 92% 11.5 mph N18.5 kmh N 18.4 mph29.6 kmh 29.46 in997.6 mb - 0.02 in0.5 mm 1.08 in27.4 mm
12:50 PM 37.5°F3.1°C 35.1°F1.7°C 91% 11.5 mph N18.5 kmh N 12.7 mph20.4 kmh 29.48 in998.3 mb - 0.03 in0.8 mm 1.11 in28.2 mm
01:00 PM 37.0°F2.8°C 34.9°F1.6°C 92% 12.7 mph NNW20.4 kmh NNW 23.0 mph37.0 kmh 29.51 in999.3 mb - 0.01 in0.3 mm 1.12 in28.4 mm
01:10 PM 36.1°F2.3°C 33.7°F0.9°C 91% 11.5 mph N18.5 kmh N 19.6 mph31.5 kmh 29.51 in999.3 mb - 0.01 in0.3 mm 1.13 in28.7 mm
01:20 PM 35.2°F1.8°C 33.1°F0.6°C 92% 11.5 mph NW18.5 kmh NW 18.4 mph29.6 kmh 29.52 in999.7 mb - 0.02 in0.5 mm 1.15 in29.2 mm
01:30 PM 34.6°F1.4°C 32.6°F0.3°C 92% 9.2 mph N14.8 kmh N 13.8 mph22.2 kmh 29.53 in1000.0 mb - 0.01 in0.3 mm 1.16 in29.5 mm
01:40 PM 34.6°F1.4°C 32.8°F0.4°C 93% 9.2 mph NNW14.8 kmh NNW 15.0 mph24.1 kmh 29.53 in1000.0 mb - 0.01 in0.3 mm 1.17 in29.7 mm
01:50 PM 34.8°F1.6°C 33.0°F0.6°C 93% 11.5 mph N18.5 kmh N 17.3 mph27.8 kmh 29.53 in1000.0 mb - 0.01 in0.3 mm 1.18 in30.0 mm
02:00 PM 35.5°F1.9°C 33.7°F0.9°C 93% 9.2 mph N14.8 kmh N 17.3 mph27.8 kmh 29.52 in999.7 mb - 0.01 in0.3 mm 1.19 in30.2 mm
02:10 PM 36.3°F2.4°C 34.8°F1.6°C 94% 9.2 mph NNW14.8 kmh NNW 15.0 mph24.1 kmh 29.53 in1000.0 mb - 0.00 in0.0 mm 1.19 in30.2 mm
02:20 PM 36.9°F2.7°C 35.1°F1.7°C 93% 12.7 mph N20.4 kmh N 16.1 mph25.9 kmh 29.53 in1000.0 mb - 0.00 in0.0 mm 1.19 in30.2 mm
02:30 PM 37.6°F3.1°C 35.7°F2.1°C 93% 8.1 mph NNW13.0 kmh NNW 11.5 mph18.5 kmh 29.53 in1000.0 mb - 0.00 in0.0 mm 1.19 in30.2 mm
02:40 PM 38.1°F3.4°C 36.0°F2.2°C 92% 12.7 mph NNW20.4 kmh NNW 23.0 mph37.0 kmh 29.53 in1000.0 mb - 0.00 in0.0 mm 1.19 in30.2 mm
02:50 PM 38.4°F3.6°C 36.3°F2.4°C 92% 11.5 mph N18.5 kmh N 17.3 mph27.8 kmh 29.54 in1000.3 mb - 0.00 in0.0 mm 1.19 in30.2 mm
03:00 PM 38.6°F3.7°C 36.2°F2.3°C 91% 12.7 mph NNW20.4 kmh NNW 18.4 mph29.6 kmh 29.55 in1000.7 mb - 0.00 in0.0 mm 1.19 in30.2 mm
03:10 PM 38.9°F3.8°C 36.5°F2.5°C 91% 8.1 mph N13.0 kmh N 12.7 mph20.4 kmh 29.56 in1001.0 mb - 0.00 in0.0 mm 1.19 in30.2 mm
03:20 PM 39.0°F3.9°C 36.3°F2.4°C 90% 11.5 mph NNW18.5 kmh NNW 17.3 mph27.8 kmh 29.56 in1001.0 mb - 0.00 in0.0 mm 1.19 in30.2 mm
03:30 PM 39.1°F3.9°C 36.4°F2.4°C 90% 11.5 mph NNW18.5 kmh NNW 16.1 mph25.9 kmh 29.57 in1001.4 mb - 0.00 in0.0 mm 1.19 in30.2 mm
03:40 PM 39.2°F4.0°C 36.2°F2.3°C 89% 12.7 mph N20.4 kmh N 13.8 mph22.2 kmh 29.59 in1002.0 mb - 0.00 in0.0 mm 1.19 in30.2 mm
03:50 PM 39.2°F4.0°C 36.5°F2.5°C 90% 12.7 mph NNW20.4 kmh NNW 17.3 mph27.8 kmh 29.60 in1002.4 mb - 0.00 in0.0 mm 1.19 in30.2 mm
04:00 PM 39.2°F4.0°C 36.5°F2.5°C 90% 10.4 mph N16.7 kmh N 12.7 mph20.4 kmh 29.60 in1002.4 mb - 0.00 in0.0 mm 1.19 in30.2 mm
04:10 PM 39.2°F4.0°C 36.5°F2.5°C 90% 10.4 mph NW16.7 kmh NW 19.6 mph31.5 kmh 29.61 in1002.7 mb - 0.00 in0.0 mm 1.19 in30.2 mm
04:20 PM 39.3°F4.1°C 36.3°F2.4°C 89% 11.5 mph NNW18.5 kmh NNW 16.1 mph25.9 kmh 29.62 in1003.0 mb - 0.00 in0.0 mm 1.19 in30.2 mm
04:30 PM 39.4°F4.1°C 36.4°F2.4°C 89% 5.8 mph NW9.3 kmh NW 10.4 mph16.7 kmh 29.63 in1003.4 mb - 0.00 in0.0 mm 1.19 in30.2 mm
04:40 PM 39.4°F4.1°C 36.4°F2.4°C 89% 11.5 mph NNW18.5 kmh NNW 15.0 mph24.1 kmh 29.63 in1003.4 mb - 0.00 in0.0 mm 1.19 in30.2 mm
04:50 PM 39.3°F4.1°C 36.3°F2.4°C 89% 9.2 mph NW14.8 kmh NW 16.1 mph25.9 kmh 29.64 in1003.7 mb - 0.00 in0.0 mm 1.19 in30.2 mm
05:00 PM 39.3°F4.1°C 35.8°F2.1°C 87% 13.8 mph NW22.2 kmh NW 18.4 mph29.6 kmh 29.66 in1004.4 mb - 0.00 in0.0 mm 1.19 in30.2 mm
05:10 PM 39.4°F4.1°C 35.5°F1.9°C 86% 12.7 mph NW20.4 kmh NW 19.6 mph31.5 kmh 29.66 in1004.4 mb - 0.00 in0.0 mm 1.19 in30.2 mm
05:20 PM 39.3°F4.1°C 34.9°F1.6°C 84% 13.8 mph NW22.2 kmh NW 24.2 mph38.9 kmh 29.68 in1005.1 mb - 0.00 in0.0 mm 1.19 in30.2 mm
05:30 PM 39.4°F4.1°C 35.0°F1.7°C 84% 10.4 mph NW16.7 kmh NW 13.8 mph22.2 kmh 29.68 in1005.1 mb - 0.00 in0.0 mm 1.19 in30.2 mm
05:40 PM 39.3°F4.1°C 34.9°F1.6°C 84% 10.4 mph NW16.7 kmh NW 17.3 mph27.8 kmh 29.69 in1005.4 mb - 0.00 in0.0 mm 1.19 in30.2 mm
05:50 PM 39.3°F4.1°C 34.6°F1.4°C 83% 10.4 mph NW16.7 kmh NW 15.0 mph24.1 kmh 29.69 in1005.4 mb - 0.00 in0.0 mm 1.19 in30.2 mm
06:00 PM 39.3°F4.1°C 34.9°F1.6°C 84% 9.2 mph NW14.8 kmh NW 12.7 mph20.4 kmh 29.70 in1005.8 mb - 0.00 in0.0 mm 1.19 in30.2 mm
06:10 PM 39.1°F3.9°C 35.0°F1.7°C 85% 8.1 mph NW13.0 kmh NW 13.8 mph22.2 kmh 29.71 in1006.1 mb - 0.00 in0.0 mm 1.19 in30.2 mm
06:20 PM 39.2°F4.0°C 35.1°F1.7°C 85% 9.2 mph NW14.8 kmh NW 11.5 mph18.5 kmh 29.71 in1006.1 mb - 0.00 in0.0 mm 1.19 in30.2 mm
06:30 PM 39.2°F4.0°C 34.8°F1.6°C 84% 8.1 mph NW13.0 kmh NW 15.0 mph24.1 kmh 29.72 in1006.4 mb - 0.00 in0.0 mm 1.19 in30.2 mm
06:40 PM 39.2°F4.0°C 34.8°F1.6°C 84% 11.5 mph NW18.5 kmh NW 15.0 mph24.1 kmh 29.72 in1006.4 mb - 0.00 in0.0 mm 1.19 in30.2 mm
06:50 PM 39.1°F3.9°C 34.7°F1.5°C 84% 9.2 mph NW14.8 kmh NW 11.5 mph18.5 kmh 29.73 in1006.8 mb - 0.00 in0.0 mm 1.19 in30.2 mm
07:00 PM 39.0°F3.9°C 34.6°F1.4°C 84% 9.2 mph NW14.8 kmh NW 12.7 mph20.4 kmh 29.73 in1006.8 mb - 0.00 in0.0 mm 1.19 in30.2 mm
07:10 PM 39.0°F3.9°C 34.6°F1.4°C 84% 9.2 mph NW14.8 kmh NW 19.6 mph31.5 kmh 29.73 in1006.8 mb - 0.00 in0.0 mm 1.19 in30.2 mm
07:20 PM 38.9°F3.8°C 34.5°F1.4°C 84% 8.1 mph NW13.0 kmh NW 12.7 mph20.4 kmh 29.74 in1007.1 mb - 0.00 in0.0 mm 1.19 in30.2 mm
07:30 PM 38.9°F3.8°C 34.5°F1.4°C 84% 12.7 mph NW20.4 kmh NW 17.3 mph27.8 kmh 29.75 in1007.5 mb - 0.00 in0.0 mm 1.19 in30.2 mm
07:40 PM 38.8°F3.8°C 34.4°F1.3°C 84% 9.2 mph NW14.8 kmh NW 12.7 mph20.4 kmh 29.75 in1007.5 mb - 0.00 in0.0 mm 1.19 in30.2 mm
07:50 PM 38.8°F3.8°C 34.1°F1.2°C 83% 11.5 mph NW18.5 kmh NW 16.1 mph25.9 kmh 29.76 in1007.8 mb - 0.00 in0.0 mm 1.19 in30.2 mm
08:00 PM 38.8°F3.8°C 33.7°F0.9°C 82% 10.4 mph NW16.7 kmh NW 19.6 mph31.5 kmh 29.77 in1008.1 mb - 0.00 in0.0 mm 1.19 in30.2 mm
08:10 PM 38.6°F3.7°C 33.6°F0.9°C 82% 10.4 mph NW16.7 kmh NW 18.4 mph29.6 kmh 29.78 in1008.5 mb - 0.00 in0.0 mm 1.19 in30.2 mm
08:20 PM 38.4°F3.6°C 33.7°F0.9°C 83% 8.1 mph NW13.0 kmh NW 11.5 mph18.5 kmh 29.78 in1008.5 mb - 0.00 in0.0 mm 1.19 in30.2 mm
08:30 PM 38.2°F3.4°C 33.8°F1.0°C 84% 5.8 mph NW9.3 kmh NW 10.4 mph16.7 kmh 29.79 in1008.8 mb - 0.00 in0.0 mm 1.19 in30.2 mm
08:40 PM 38.1°F3.4°C 34.0°F1.1°C 85% 8.1 mph NW13.0 kmh NW 13.8 mph22.2 kmh 29.79 in1008.8 mb - 0.00 in0.0 mm 1.19 in30.2 mm
08:50 PM 38.1°F3.4°C 34.0°F1.1°C 85% 5.8 mph NW9.3 kmh NW 11.5 mph18.5 kmh 29.80 in1009.1 mb - 0.00 in0.0 mm 1.19 in30.2 mm
09:00 PM 38.0°F3.3°C 34.2°F1.2°C 86% 5.8 mph WNW9.3 kmh WNW 8.1 mph13.0 kmh 29.80 in1009.1 mb - 0.00 in0.0 mm 1.19 in30.2 mm
09:10 PM 38.0°F3.3°C 34.2°F1.2°C 86% 5.8 mph NW9.3 kmh NW 11.5 mph18.5 kmh 29.81 in1009.5 mb - 0.00 in0.0 mm 1.19 in30.2 mm
09:20 PM 37.9°F3.3°C 34.1°F1.2°C 86% 8.1 mph NW13.0 kmh NW 11.5 mph18.5 kmh 29.81 in1009.5 mb - 0.00 in0.0 mm 1.19 in30.2 mm
09:30 PM 37.9°F3.3°C 33.8°F1.0°C 85% 9.2 mph NW14.8 kmh NW 16.1 mph25.9 kmh 29.82 in1009.8 mb - 0.00 in0.0 mm 1.19 in30.2 mm
09:40 PM 37.7°F3.2°C 33.6°F0.9°C 85% 6.9 mph NW11.1 kmh NW 11.5 mph18.5 kmh 29.83 in1010.2 mb - 0.00 in0.0 mm 1.19 in30.2 mm
09:50 PM 37.6°F3.1°C 33.8°F1.0°C 86% 5.8 mph WNW9.3 kmh WNW 11.5 mph18.5 kmh 29.83 in1010.2 mb - 0.00 in0.0 mm 1.19 in30.2 mm
10:00 PM 37.5°F3.1°C 33.7°F0.9°C 86% 5.8 mph NW9.3 kmh NW 10.4 mph16.7 kmh 29.84 in1010.5 mb - 0.00 in0.0 mm 1.19 in30.2 mm
10:10 PM 37.4°F3.0°C 33.6°F0.9°C 86% 5.8 mph WNW9.3 kmh WNW 11.5 mph18.5 kmh 29.84 in1010.5 mb - 0.00 in0.0 mm 1.19 in30.2 mm
10:20 PM 37.4°F3.0°C 33.6°F0.9°C 86% 8.1 mph NW13.0 kmh NW 10.4 mph16.7 kmh 29.85 in1010.8 mb - 0.00 in0.0 mm 1.19 in30.2 mm
10:30 PM 37.4°F3.0°C 33.3°F0.7°C 85% 9.2 mph NW14.8 kmh NW 13.8 mph22.2 kmh 29.85 in1010.8 mb - 0.00 in0.0 mm 1.19 in30.2 mm
10:40 PM 37.4°F3.0°C 33.0°F0.6°C 84% 10.4 mph NW16.7 kmh NW 16.1 mph25.9 kmh 29.86 in1011.2 mb - 0.00 in0.0 mm 1.19 in30.2 mm
10:50 PM 37.4°F3.0°C 33.0°F0.6°C 84% 5.8 mph NW9.3 kmh NW 10.4 mph16.7 kmh 29.86 in1011.2 mb - 0.00 in0.0 mm 1.19 in30.2 mm
11:00 PM 37.3°F2.9°C 32.6°F0.3°C 83% 9.2 mph NW14.8 kmh NW 16.1 mph25.9 kmh 29.87 in1011.5 mb - 0.00 in0.0 mm 1.19 in30.2 mm
11:10 PM 37.2°F2.9°C 32.5°F0.3°C 83% 9.2 mph NW14.8 kmh NW 11.5 mph18.5 kmh 29.87 in1011.5 mb - 0.00 in0.0 mm 1.19 in30.2 mm
11:20 PM 37.1°F2.8°C 32.1°F0.1°C 82% 11.5 mph NW18.5 kmh NW 15.0 mph24.1 kmh 29.88 in1011.9 mb - 0.00 in0.0 mm 1.19 in30.2 mm
11:30 PM 36.9°F2.7°C 31.6°F-0.2°C 81% 9.2 mph NW14.8 kmh NW 12.7 mph20.4 kmh 29.88 in1011.9 mb - 0.00 in0.0 mm 1.19 in30.2 mm
11:40 PM 36.7°F2.6°C 31.4°F-0.3°C 81% 10.4 mph NW16.7 kmh NW 12.7 mph20.4 kmh 29.88 in1011.9 mb - 0.00 in0.0 mm 1.19 in30.2 mm
11:50 PM 36.6°F2.6°C 31.6°F-0.2°C 82% 4.6 mph NW7.4 kmh NW 12.7 mph20.4 kmh 29.89 in1012.2 mb - 0.00 in0.0 mm 1.19 in30.2 mm